Time;durP1;ratioP1;P1;durP2;ratioP2;P2;SDS_P1;SDS_P2;PMS_P1;PMS_P2;Temp;Humidity;BMP_temperature;BMP_pressure;BME280_temperature;BME280_humidity;BME280_pressure;Samples;Min_cycle;Max_cycle;Signal;HPM_P1;HPM_P2
2023/07/24 00:02:07;;;;;;;3.30;3.00;;;21.30;91.00;;;23.64;60.79;100254.72;5004742;28;20187;-60
2023/07/24 00:04:34;;;;;;;3.57;3.00;;;21.30;91.10;;;23.62;60.93;100251.50;5014469;28;20191;-61
2023/07/24 00:07:03;;;;;;;3.00;2.70;;;21.20;91.10;;;23.65;60.86;100256.34;5014022;28;20210;-60
2023/07/24 00:09:30;;;;;;;4.70;3.53;;;21.20;91.20;;;23.62;60.82;100250.72;5013553;28;20225;-60
2023/07/24 00:11:57;;;;;;;2.97;2.73;;;21.20;91.30;;;23.67;60.91;100248.81;5014358;28;20187;-60
2023/07/24 00:14:24;;;;;;;3.33;2.90;;;21.20;91.30;;;23.73;60.88;100250.41;5014835;28;20226;-60
2023/07/24 00:16:51;;;;;;;3.20;2.90;;;21.20;91.40;;;23.74;60.48;100252.03;5014591;28;20215;-60
2023/07/24 00:19:19;;;;;;;3.43;3.13;;;21.20;91.40;;;23.71;60.90;100252.56;5014542;28;20211;-60
2023/07/24 00:21:46;;;;;;;3.00;2.80;;;21.20;91.40;;;23.69;61.14;100254.72;5014247;28;20230;-58
2023/07/24 00:24:14;;;;;;;2.90;2.70;;;21.20;91.40;;;23.71;60.79;100241.81;5014021;28;20229;-60
2023/07/24 00:26:41;;;;;;;3.63;3.17;;;21.20;91.40;;;23.67;61.16;100245.31;5013804;28;20279;-59
2023/07/24 00:29:08;;;;;;;3.10;2.80;;;21.20;91.40;;;23.65;60.94;100231.34;5013978;28;20306;-60
2023/07/24 00:31:35;;;;;;;3.03;2.73;;;21.20;91.50;;;23.63;61.29;100234.28;5012963;28;20195;-60
2023/07/24 00:34:02;;;;;;;3.87;3.47;;;21.20;91.40;;;23.61;61.54;100239.16;5014220;28;20195;-61
2023/07/24 00:36:29;;;;;;;3.50;3.20;;;21.20;91.40;;;23.63;61.57;100234.28;5013793;28;20214;-59
2023/07/24 00:38:57;;;;;;;4.27;2.83;;;21.20;91.40;;;23.61;60.91;100231.06;5013512;28;20195;-57
2023/07/24 00:41:25;;;;;;;2.60;2.40;;;21.20;91.40;;;23.63;60.93;100234.28;5013745;28;20199;-60
2023/07/24 00:43:52;;;;;;;3.73;2.83;;;21.20;91.40;;;23.61;60.98;100233.78;5013891;28;20683;-58
2023/07/24 00:46:20;;;;;;;3.20;2.80;;;21.20;91.50;;;23.65;60.84;100234.03;5013876;28;20187;-61
2023/07/24 00:48:47;;;;;;;2.60;2.40;;;21.20;91.60;;;23.65;61.68;100237.53;5013402;28;20191;-59
2023/07/24 00:51:15;;;;;;;3.33;3.07;;;21.20;91.50;;;23.68;61.01;100234.28;5013393;28;20195;-60
2023/07/24 00:53:42;;;;;;;3.60;2.50;;;21.20;91.50;;;23.72;61.14;100232.69;4999006;28;20219;-58
2023/07/24 00:56:10;;;;;;;3.10;2.90;;;21.20;91.50;;;23.75;60.75;100240.19;4994392;28;20207;-61
2023/07/24 00:58:39;;;;;;;3.57;2.87;;;21.20;91.50;;;23.73;60.96;100234.28;4994122;28;20198;-59
2023/07/24 01:01:07;;;;;;;2.87;2.67;;;21.20;91.40;;;23.71;61.02;100224.88;4993885;28;20258;-59
2023/07/24 01:03:36;;;;;;;3.20;3.00;;;21.20;91.40;;;23.70;60.94;100224.06;4994173;28;20541;-60
2023/07/24 01:06:04;;;;;;;2.40;2.30;;;21.20;91.40;;;23.76;60.51;100228.38;4994253;28;20196;-59
2023/07/24 01:08:31;;;;;;;2.90;2.40;;;21.20;91.40;;;23.77;60.72;100229.94;4994135;28;20227;-60
2023/07/24 01:11:05;;;;;;;2.53;2.33;;;21.30;91.40;;;23.84;60.81;100227.00;4993890;28;20211;-58
2023/07/24 01:13:40;;;;;;;2.77;2.57;;;21.30;91.40;;;23.91;60.62;100227.50;4993994;28;20281;-60
2023/07/24 01:16:14;;;;;;;2.40;2.20;;;21.30;91.70;;;23.97;59.91;100224.53;4994330;28;20195;-59
2023/07/24 01:18:44;;;;;;;2.97;2.67;;;21.30;91.30;;;24.02;59.81;100232.56;4993739;28;20187;-61
2023/07/24 01:21:16;;;;;;;3.90;2.87;;;21.30;91.20;;;24.01;59.92;100227.47;4994672;28;20701;-58
2023/07/24 01:24:00;;;;;;;3.27;2.63;;;21.40;91.10;;;23.94;59.92;100222.38;4997650;28;20187;-59
2023/07/24 01:26:28;;;;;;;3.10;2.57;;;21.40;91.00;;;23.99;59.86;100237.69;4997301;28;20226;-59
2023/07/24 01:28:56;;;;;;;2.80;2.60;;;21.40;90.90;;;23.99;59.62;100230.41;4996963;28;20665;-59
2023/07/24 01:31:23;;;;;;;3.63;3.03;;;21.40;90.90;;;24.01;59.43;100228.25;4997500;28;20207;-60
2023/07/24 01:33:50;;;;;;;2.80;2.60;;;21.40;90.80;;;24.01;59.26;100230.94;5012362;28;20216;-60
2023/07/24 01:36:19;;;;;;;2.70;2.50;;;21.40;90.70;;;24.02;59.35;100227.19;4997426;28;20622;-59
2023/07/24 01:38:49;;;;;;;2.63;2.33;;;21.40;90.70;;;24.03;59.30;100228.78;4996973;28;20270;-60
2023/07/24 01:41:17;;;;;;;2.90;2.70;;;21.40;90.70;;;24.03;59.12;100231.47;4997125;28;20188;-59
2023/07/24 01:43:45;;;;;;;3.50;3.20;;;21.40;90.70;;;23.99;59.07;100227.72;4997269;28;20671;-58
2023/07/24 01:46:12;;;;;;;4.07;3.40;;;21.40;90.50;;;23.94;58.86;100225.06;4997184;28;20560;-60
2023/07/24 01:48:40;;;;;;;4.00;3.67;;;21.40;90.40;;;23.86;59.50;100222.97;4997143;28;20207;-59
2023/07/24 01:51:07;;;;;;;3.87;3.40;;;21.30;90.30;;;23.80;59.02;100213.28;4996476;28;20219;-60
2023/07/24 01:53:34;;;;;;;4.20;3.20;;;21.30;90.30;;;23.77;59.15;100219.19;5010633;28;20538;-59
2023/07/24 01:56:02;;;;;;;3.40;3.10;;;21.30;90.30;;;23.76;59.15;100212.22;5016350;28;20279;-59
2023/07/24 01:58:29;;;;;;;4.87;3.93;;;21.30;90.40;;;23.77;58.89;100215.72;5003226;28;20680;-61
2023/07/24 02:00:57;;;;;;;4.17;3.53;;;21.30;90.40;;;23.79;58.67;100216.25;4996817;28;20311;-60
2023/07/24 02:03:24;;;;;;;4.33;3.30;;;21.30;90.50;;;23.82;58.63;100221.09;4996996;28;20555;-60
2023/07/24 02:05:51;;;;;;;5.33;3.43;;;21.20;90.50;;;23.85;58.99;100220.53;4996897;28;20206;-58
2023/07/24 02:08:18;;;;;;;4.07;3.63;;;21.20;90.50;;;23.84;59.28;100225.13;4996683;28;20582;-61
2023/07/24 02:10:49;;;;;;;3.20;3.00;;;21.20;90.40;;;23.85;59.06;100221.34;4996541;28;20688;-60
2023/07/24 02:13:16;;;;;;;4.27;3.60;;;21.20;90.40;;;23.88;58.66;100220.78;4996811;28;20570;-61
2023/07/24 02:15:43;;;;;;;3.63;3.17;;;21.20;90.50;;;23.94;58.87;100211.63;4996656;28;20202;-59
2023/07/24 02:18:11;;;;;;;4.10;3.70;;;21.20;90.50;;;23.91;58.91;100214.88;4996329;28;20220;-58
2023/07/24 02:20:38;;;;;;;4.73;3.43;;;21.30;90.30;;;23.94;58.39;100211.63;4994888;28;20218;-60
2023/07/24 02:23:06;;;;;;;4.23;3.70;;;21.30;90.30;;;23.96;58.50;100206.75;4995188;28;20198;-59
2023/07/24 02:25:35;;;;;;;3.47;3.17;;;21.30;90.30;;;23.98;58.49;100204.63;4996188;28;20302;-58
2023/07/24 02:28:03;;;;;;;3.90;3.60;;;21.30;90.30;;;24.01;58.58;100212.13;4996231;28;20254;-59
2023/07/24 02:30:30;;;;;;;3.83;3.37;;;21.30;90.20;;;24.03;58.57;100201.88;4996548;28;20684;-60
2023/07/24 02:32:57;;;;;;;4.50;3.40;;;21.30;90.20;;;24.04;58.16;100198.13;4995649;28;20223;-60
2023/07/24 02:35:25;;;;;;;4.50;3.60;;;21.30;90.20;;;24.09;58.00;100197.34;4996379;28;20188;-59
2023/07/24 02:37:52;;;;;;;4.30;3.30;;;21.30;90.20;;;24.03;57.96;100196.50;4996159;28;20310;-60
2023/07/24 02:40:19;;;;;;;3.67;3.37;;;21.30;90.00;;;24.05;58.35;100199.75;4995792;28;20704;-62
2023/07/24 02:42:46;;;;;;;4.30;3.90;;;21.40;90.10;;;23.99;58.10;100200.84;4996098;28;20199;-59
2023/07/24 02:45:13;;;;;;;4.67;4.27;;;21.40;90.00;;;23.95;58.42;100197.09;4995838;28;20200;-60
2023/07/24 02:47:42;;;;;;;5.70;4.27;;;21.40;90.00;;;23.94;58.66;100198.16;4995846;28;20287;-61
2023/07/24 02:50:09;;;;;;;4.13;3.73;;;21.40;90.00;;;23.93;58.36;100195.75;4999802;28;20301;-59
2023/07/24 02:52:38;;;;;;;3.80;3.50;;;21.30;89.90;;;23.92;58.01;100189.56;5009277;28;20207;-60
2023/07/24 02:55:05;;;;;;;5.80;3.63;;;21.30;90.00;;;23.94;58.29;100192.78;4996153;28;20194;-61
2023/07/24 02:57:32;;;;;;;4.13;3.73;;;21.30;90.00;;;23.96;58.15;100195.22;4991211;28;20307;-60
2023/07/24 02:59:59;;;;;;;5.57;3.90;;;21.30;89.90;;;23.93;57.83;100193.88;4980978;28;20247;-60
2023/07/24 03:02:26;;;;;;;4.30;3.90;;;21.30;89.90;;;23.92;57.64;100199.53;4995765;28;20223;-61
2023/07/24 03:04:53;;;;;;;5.47;4.70;;;21.30;89.70;;;23.86;58.26;100196.06;4995385;28;20225;-59
2023/07/24 03:07:20;;;;;;;4.97;4.47;;;21.30;89.50;;;23.79;58.09;100202.81;4995144;28;20281;-59
2023/07/24 03:09:51;;;;;;;4.50;4.10;;;21.30;89.50;;;23.72;57.88;100203.13;4995125;28;20254;-57
2023/07/24 03:12:18;;;;;;;5.00;4.50;;;21.20;89.50;;;23.65;58.54;100199.91;4995484;28;20204;-60
2023/07/24 03:14:45;;;;;;;4.43;4.03;;;21.20;89.70;;;23.56;58.84;100198.84;4995357;28;20251;-59
2023/07/24 03:17:12;;;;;;;4.63;4.23;;;21.10;89.70;;;23.48;58.71;100200.22;4995469;28;20303;-57
2023/07/24 03:19:39;;;;;;;4.90;4.40;;;21.10;89.70;;;23.44;58.59;100191.06;4995066;28;20222;-59
2023/07/24 03:22:07;;;;;;;4.47;3.80;;;21.00;89.80;;;23.41;58.48;100198.91;4993978;28;20248;-59
2023/07/24 03:24:34;;;;;;;5.07;4.27;;;20.90;89.90;;;23.37;58.63;100203.19;4995597;28;20191;-58
2023/07/24 03:27:03;;;;;;;4.63;4.23;;;20.90;90.00;;;23.31;58.83;100188.94;4995701;28;20632;-60
2023/07/24 03:29:30;;;;;;;6.37;4.20;;;20.90;90.10;;;23.27;59.08;100187.06;4995772;28;20216;-59
2023/07/24 03:31:58;;;;;;;5.43;4.73;;;20.80;90.10;;;23.25;59.26;100189.22;4995322;28;20704;-59
2023/07/24 03:34:25;;;;;;;5.63;5.07;;;20.80;90.30;;;23.21;59.19;100180.09;4995111;28;20227;-59
2023/07/24 03:36:52;;;;;;;4.80;4.40;;;20.80;90.40;;;23.17;59.72;100187.06;5010217;28;20295;-59
2023/07/24 03:39:19;;;;;;;4.63;4.20;;;20.70;90.40;;;23.15;59.82;100183.88;4993592;28;20303;-57
2023/07/24 03:41:46;;;;;;;5.57;4.20;;;20.70;90.40;;;23.15;59.69;100179.31;4995841;28;20198;-59
2023/07/24 03:44:14;;;;;;;5.97;4.47;;;20.60;90.50;;;23.13;59.95;100183.34;4995048;28;20192;-60
2023/07/24 03:46:41;;;;;;;4.23;3.83;;;20.60;90.60;;;23.11;59.88;100180.09;4994563;28;20274;-61
2023/07/24 03:49:08;;;;;;;5.17;4.40;;;20.60;90.70;;;23.06;60.13;100182.81;4993919;28;20216;-58
2023/07/24 03:51:35;;;;;;;4.13;3.80;;;20.60;90.70;;;23.04;60.24;100182.25;4994365;28;20283;-59
2023/07/24 03:54:02;;;;;;;5.87;4.23;;;20.60;90.90;;;23.01;60.33;100188.97;4994343;28;20552;-63
2023/07/24 03:56:29;;;;;;;4.57;4.17;;;20.50;91.00;;;22.97;60.93;100204.00;4994457;28;20303;-58
2023/07/24 03:58:56;;;;;;;5.27;4.13;;;20.50;91.10;;;22.94;61.10;100193.78;4993692;28;20216;-58
2023/07/24 04:01:25;;;;;;;4.50;4.10;;;20.50;91.20;;;22.96;61.05;100196.22;4994573;28;20195;-58
2023/07/24 04:03:52;;;;;;;4.23;3.73;;;20.50;91.30;;;22.94;61.14;100185.75;4994382;28;20604;-59
2023/07/24 04:06:19;;;;;;;6.80;3.80;;;20.50;91.40;;;22.96;61.37;100180.13;4994438;28;20192;-59
2023/07/24 04:08:46;;;;;;;4.20;3.80;;;20.50;91.40;;;22.94;61.30;100182.28;4993085;28;20239;-60
2023/07/24 04:11:13;;;;;;;4.00;3.70;;;20.50;91.50;;;22.92;61.45;100200.53;4994158;28;20206;-61
2023/07/24 04:13:40;;;;;;;4.33;3.70;;;20.40;91.50;;;22.92;61.55;100185.22;4994082;28;20264;-59
2023/07/24 04:16:07;;;;;;;4.20;3.80;;;20.40;91.60;;;22.92;61.67;100180.66;4994213;28;20614;-60
2023/07/24 04:18:36;;;;;;;5.53;3.77;;;20.50;91.70;;;22.89;61.67;100191.91;4993965;28;20241;-60
2023/07/24 04:21:03;;;;;;;3.80;3.27;;;20.40;91.80;;;22.92;61.94;100184.44;4994060;28;20227;-60
2023/07/24 04:23:30;;;;;;;3.97;3.57;;;20.40;91.80;;;22.97;62.08;100176.34;4993063;28;20279;-60
2023/07/24 04:25:57;;;;;;;4.17;3.10;;;20.50;91.90;;;22.99;62.01;100179.59;4993832;28;20214;-59
2023/07/24 04:28:24;;;;;;;3.73;3.43;;;20.50;91.90;;;23.00;61.66;100175.81;4993770;28;20657;-61
2023/07/24 04:30:51;;;;;;;3.67;3.37;;;20.50;91.90;;;23.05;61.46;100173.13;4993816;28;20681;-60
2023/07/24 04:33:18;;;;;;;3.87;3.57;;;20.50;91.90;;;23.09;62.03;100172.31;4993919;28;20192;-61
2023/07/24 04:35:49;;;;;;;3.37;3.07;;;20.60;92.00;;;23.17;61.70;100170.97;4993716;28;20282;-60
2023/07/24 04:38:16;;;;;;;3.47;2.90;;;20.60;91.90;;;23.26;61.87;100163.97;4994085;28;20227;-61
2023/07/24 04:40:45;;;;;;;3.93;3.43;;;20.60;92.00;;;23.33;61.56;100159.09;4994474;28;20306;-61
2023/07/24 04:43:12;;;;;;;3.87;3.30;;;20.70;91.90;;;23.40;61.34;100154.28;5002992;28;20199;-58
2023/07/24 04:45:39;;;;;;;3.13;2.83;;;20.70;91.90;;;23.47;61.04;100146.75;5013644;28;20278;-61
2023/07/24 04:48:06;;;;;;;2.80;2.60;;;20.80;91.90;;;23.55;61.19;100140.81;5013942;28;20270;-61
2023/07/24 04:50:33;;;;;;;3.40;3.07;;;20.80;91.90;;;23.58;60.51;100140.28;5013247;28;20211;-62
2023/07/24 04:53:01;;;;;;;3.77;2.93;;;20.90;91.80;;;23.61;60.49;100133.50;5004179;28;20276;-62
2023/07/24 04:55:28;;;;;;;4.43;3.20;;;20.90;91.70;;;23.60;60.70;100135.41;4995079;28;20220;-61
2023/07/24 04:57:55;;;;;;;3.40;2.80;;;21.00;91.70;;;23.60;60.85;100124.69;4997274;28;20223;-62
2023/07/24 05:00:22;;;;;;;6.77;2.63;;;21.00;91.60;;;23.63;60.40;100126.78;4997606;28;20243;-62
2023/07/24 05:02:49;;;;;;;4.10;3.13;;;21.00;91.60;;;23.63;60.31;100123.31;4997930;28;20210;-60
2023/07/24 05:05:16;;;;;;;3.03;2.70;;;21.00;91.50;;;23.65;60.95;100124.66;4997992;28;20195;-60
2023/07/24 05:07:43;;;;;;;5.60;3.00;;;21.00;91.50;;;23.64;60.99;100112.28;4996413;28;20246;-61
2023/07/24 05:10:13;;;;;;;3.07;2.87;;;21.10;91.50;;;23.65;60.51;100113.91;4997528;28;20246;-61
2023/07/24 05:12:41;;;;;;;3.50;3.17;;;21.10;91.50;;;23.64;60.75;100112.28;4997743;28;20192;-62
2023/07/24 05:15:09;;;;;;;2.63;2.43;;;21.10;91.60;;;23.66;60.70;100110.13;4996251;28;20260;-62
2023/07/24 05:17:36;;;;;;;3.30;3.00;;;21.10;91.50;;;23.69;60.54;100114.94;4997564;28;20311;-62
2023/07/24 05:20:05;;;;;;;3.97;3.47;;;21.10;91.60;;;23.71;60.82;100117.34;4997323;28;20247;-61
2023/07/24 05:22:32;;;;;;;3.40;3.10;;;21.10;91.60;;;23.71;60.58;100112.78;4997783;28;20206;-58
2023/07/24 05:24:59;;;;;;;3.53;3.23;;;21.10;91.50;;;23.75;60.77;100110.38;4996800;28;20203;-61
2023/07/24 05:27:29;;;;;;;2.77;2.57;;;21.20;91.60;;;23.77;60.41;100114.34;4996925;28;20238;-60
2023/07/24 05:29:56;;;;;;;2.37;2.17;;;21.20;91.50;;;23.78;60.38;100118.66;4996872;28;20584;-60
2023/07/24 05:32:23;;;;;;;2.60;2.40;;;21.20;91.50;;;23.80;60.67;100121.88;4996498;28;20223;-60
2023/07/24 05:34:50;;;;;;;2.67;2.47;;;21.20;91.50;;;23.84;60.86;100120.28;4996886;28;20195;-61
2023/07/24 05:37:17;;;;;;;2.83;2.53;;;21.20;91.50;;;23.88;60.63;100121.31;4996749;28;20557;-61
2023/07/24 05:39:44;;;;;;;2.87;2.67;;;21.20;91.50;;;23.96;60.68;100120.72;4996283;28;20641;-61
2023/07/24 05:42:11;;;;;;;2.93;2.63;;;21.20;91.50;;;23.90;60.35;100111.09;4996747;28;20283;-61
2023/07/24 05:44:39;;;;;;;2.63;2.43;;;21.30;91.40;;;23.94;60.34;100111.31;4996019;28;20269;-61
2023/07/24 05:47:07;;;;;;;2.90;2.70;;;21.30;91.40;;;23.98;59.66;100107.00;4996360;28;20287;-61
2023/07/24 05:49:34;;;;;;;2.60;2.40;;;21.30;91.30;;;24.02;59.55;100103.47;4996105;28;20208;-60
2023/07/24 05:52:01;;;;;;;3.03;2.73;;;21.30;91.30;;;24.10;59.76;100094.84;4996315;28;20616;-61
2023/07/24 05:54:28;;;;;;;3.60;3.00;;;21.40;91.40;;;24.17;59.38;100084.59;4996672;28;20224;-60
2023/07/24 05:56:55;;;;;;;2.93;2.67;;;21.40;91.30;;;24.22;59.09;100092.59;4996282;28;20203;-61
2023/07/24 05:59:22;;;;;;;2.30;2.10;;;21.50;91.30;;;24.28;59.45;100096.06;4995826;28;20231;-62
2023/07/24 06:01:50;;;;;;;3.33;2.90;;;21.50;91.20;;;24.30;59.33;100090.41;4992081;28;20204;-61
2023/07/24 06:04:17;;;;;;;2.60;2.40;;;21.50;91.00;;;24.31;59.49;100089.31;4976724;28;20193;-61
2023/07/24 06:06:44;;;;;;;2.80;2.60;;;21.60;91.00;;;24.37;59.27;100094.38;4975963;28;20208;-61
2023/07/24 06:09:11;;;;;;;2.77;2.57;;;21.60;91.00;;;24.42;59.28;100101.59;4976673;28;20213;-60
2023/07/24 06:11:38;;;;;;;2.70;2.37;;;21.60;91.00;;;24.47;58.71;100099.69;4976459;28;20293;-63
2023/07/24 06:14:05;;;;;;;3.40;3.10;;;21.60;90.90;;;24.47;58.31;100102.38;4976900;28;20197;-59
2023/07/24 06:16:32;;;;;;;3.37;3.07;;;21.60;90.80;;;24.49;58.29;100097.53;4976730;28;20272;-59
2023/07/24 06:19:01;;;;;;;4.00;3.60;;;21.70;90.80;;;24.49;58.16;100091.31;4975831;28;20221;-59
2023/07/24 06:21:28;;;;;;;4.07;3.77;;;21.70;90.40;;;24.48;57.97;100089.75;4975735;28;20200;-62
2023/07/24 06:23:56;;;;;;;4.10;3.70;;;21.70;90.20;;;24.46;57.63;100087.31;4976447;28;20203;-58
2023/07/24 06:26:23;;;;;;;4.00;3.60;;;21.70;90.10;;;24.47;57.70;100088.13;4994108;28;20287;-58
2023/07/24 06:28:50;;;;;;;3.73;3.20;;;21.70;90.10;;;24.51;57.83;100089.19;4995299;28;20580;-61
2023/07/24 06:31:17;;;;;;;4.13;3.83;;;21.70;90.10;;;24.54;57.72;100094.78;4995406;28;20195;-59
2023/07/24 06:33:44;;;;;;;4.60;4.20;;;21.70;90.10;;;24.56;57.74;100098.00;4996078;28;20684;-59
2023/07/24 06:36:13;;;;;;;3.73;3.43;;;21.70;90.00;;;24.59;57.76;100099.31;4982910;28;20291;-61
2023/07/24 06:38:42;;;;;;;4.70;4.27;;;21.80;90.00;;;24.59;56.80;100091.25;4975473;28;20530;-60
2023/07/24 06:41:09;;;;;;;4.30;3.90;;;21.80;89.60;;;24.60;57.17;100093.69;4976744;28;20196;-60
2023/07/24 06:43:36;;;;;;;4.77;3.53;;;21.80;89.60;;;24.62;56.86;100096.06;4976401;28;20287;-61
2023/07/24 06:46:04;;;;;;;4.20;3.80;;;21.80;89.50;;;24.65;56.72;100090.13;4976420;28;20216;-59
2023/07/24 06:48:32;;;;;;;5.93;5.37;;;21.80;89.60;;;24.67;56.77;100104.09;4975954;28;20196;-61
2023/07/24 06:50:59;;;;;;;16.80;13.83;;;21.80;89.60;;;24.72;57.00;100101.38;4975193;28;20307;-61
2023/07/24 06:53:27;;;;;;;6.30;5.80;;;21.80;89.60;;;24.73;57.00;100098.38;5001250;28;20241;-61
2023/07/24 06:55:55;;;;;;;4.20;3.80;;;21.90;89.50;;;24.63;56.87;100108.44;5014982;28;20223;-61
2023/07/24 06:58:22;;;;;;;4.80;4.40;;;21.90;89.20;;;24.55;57.24;100109.88;5002367;28;20244;-61
2023/07/24 07:00:49;;;;;;;4.10;3.80;;;21.90;89.10;;;24.51;56.99;100110.72;4995060;28;20253;-59
2023/07/24 07:03:16;;;;;;;5.07;3.77;;;21.90;89.10;;;24.48;57.28;100111.25;4994724;28;20243;-60
2023/07/24 07:05:43;;;;;;;5.23;4.73;;;21.90;89.30;;;24.48;57.77;100114.78;4995160;28;20207;-61
2023/07/24 07:08:10;;;;;;;5.03;4.40;;;21.80;89.50;;;24.35;57.41;100106.50;4995092;28;20195;-60
2023/07/24 07:10:38;;;;;;;5.10;4.70;;;21.80;89.20;;;24.25;58.27;100111.97;4994749;28;20215;-60
2023/07/24 07:13:05;;;;;;;4.67;4.27;;;21.80;89.40;;;24.21;58.47;100112.53;4995009;28;20188;-60
2023/07/24 07:15:32;;;;;;;4.87;4.37;;;21.80;89.70;;;24.20;58.66;100099.34;4995073;28;20191;-61
2023/07/24 07:17:59;;;;;;;4.60;4.30;;;21.70;90.10;;;24.17;58.32;100083.78;4993407;28;20199;-59
2023/07/24 07:20:26;;;;;;;4.90;4.50;;;21.70;90.10;;;24.13;58.94;100088.91;4993673;28;20299;-61
2023/07/24 07:22:53;;;;;;;4.50;4.10;;;21.70;90.00;;;24.15;59.00;100086.72;4994719;28;20194;-59
2023/07/24 07:25:20;;;;;;;5.17;4.60;;;21.70;90.10;;;24.13;58.37;100099.66;4994647;28;20266;-62
2023/07/24 07:27:49;;;;;;;5.03;4.63;;;21.60;90.10;;;24.14;58.82;100101.28;4994059;28;20243;-61
2023/07/24 07:30:16;;;;;;;5.77;5.27;;;21.60;90.30;;;24.08;59.09;100097.00;4994378;28;20306;-61
2023/07/24 07:32:43;;;;;;;5.47;4.97;;;21.60;90.30;;;24.06;59.04;100104.56;4994707;28;20262;-61
2023/07/24 07:35:10;;;;;;;7.03;6.33;;;21.60;90.40;;;24.09;58.55;100106.69;4994452;28;20203;-62
2023/07/24 07:37:37;;;;;;;5.77;4.97;;;21.60;90.30;;;24.14;58.95;100111.22;4994548;28;20684;-59
2023/07/24 07:40:06;;;;;;;6.00;5.50;;;21.60;90.40;;;24.22;58.62;100108.75;4994066;28;20270;-61
2023/07/24 07:42:33;;;;;;;5.47;5.00;;;21.60;90.30;;;24.29;58.08;100108.44;4993510;28;20204;-61
2023/07/24 07:45:02;;;;;;;6.13;5.63;;;21.60;90.20;;;24.40;57.88;100119.94;4994709;28;20195;-61
2023/07/24 07:47:30;;;;;;;5.40;4.87;;;21.70;90.30;;;24.48;58.04;100108.56;4994790;28;20196;-61
2023/07/24 07:49:57;;;;;;;5.80;5.30;;;21.70;90.10;;;24.58;57.53;100111.19;4993971;28;20211;-60
2023/07/24 07:52:24;;;;;;;5.60;5.10;;;21.70;90.00;;;24.63;57.14;100113.81;4997661;28;20219;-61
2023/07/24 07:54:51;;;;;;;5.93;5.33;;;21.80;89.20;;;24.59;56.32;100102.81;4995314;28;20191;-60
2023/07/24 07:57:19;;;;;;;6.17;5.33;;;21.80;88.80;;;24.66;56.26;100102.50;4990941;28;20246;-61
2023/07/24 07:59:46;;;;;;;5.63;5.23;;;21.90;88.80;;;24.75;56.70;100098.09;4993478;28;20319;-59
2023/07/24 08:02:14;;;;;;;5.77;5.27;;;21.90;88.70;;;24.89;56.64;100107.16;4993960;28;20216;-60
2023/07/24 08:04:41;;;;;;;6.87;6.33;;;22.00;88.90;;;25.02;56.41;100111.88;4994283;28;20192;-61
2023/07/24 08:07:08;;;;;;;6.27;5.77;;;22.00;89.00;;;25.15;55.61;100100.41;4993278;28;20687;-61
2023/07/24 08:09:37;;;;;;;6.13;5.63;;;22.10;88.80;;;25.25;55.78;100104.88;4978122;28;20311;-61
2023/07/24 08:12:08;;;;;;;5.10;4.70;;;22.20;88.60;;;25.30;55.49;100108.34;4993198;28;20589;-61
2023/07/24 08:14:35;;;;;;;5.57;5.17;;;22.30;88.40;;;25.34;55.05;100112.06;4985811;28;20691;-60
2023/07/24 08:17:02;;;;;;;6.10;5.60;;;22.30;88.20;;;25.33;55.32;100107.78;4993678;28;20266;-63
2023/07/24 08:19:31;;;;;;;5.77;5.30;;;22.40;87.70;;;25.25;55.61;100116.47;4992479;28;20223;-61
2023/07/24 08:21:58;;;;;;;5.90;5.40;;;22.50;87.50;;;25.18;55.65;100107.13;4993699;28;20263;-61
2023/07/24 08:24:25;;;;;;;6.20;5.60;;;22.40;87.00;;;25.17;55.31;100106.34;4994204;28;20581;-60
2023/07/24 08:26:52;;;;;;;5.50;5.00;;;22.40;86.90;;;25.20;54.69;100108.44;4993697;28;20207;-61
2023/07/24 08:29:20;;;;;;;5.50;5.03;;;22.40;86.60;;;25.23;55.15;100102.50;4993312;28;20668;-63
2023/07/24 08:31:47;;;;;;;5.77;5.37;;;22.40;86.50;;;25.27;54.96;100102.72;4993048;28;20207;-60
2023/07/24 08:34:14;;;;;;;6.30;5.80;;;22.40;86.40;;;25.29;54.88;100098.63;4993300;28;20253;-62
2023/07/24 08:36:42;;;;;;;6.30;5.90;;;22.40;86.20;;;25.29;54.76;100095.16;4988594;28;20195;-59
2023/07/24 08:39:10;;;;;;;6.03;5.53;;;22.40;86.10;;;25.31;54.25;100093.78;4993209;28;20220;-61
2023/07/24 08:41:37;;;;;;;6.10;5.53;;;22.40;86.10;;;25.31;54.74;100096.47;4993626;28;20217;-60
2023/07/24 08:44:07;;;;;;;7.23;6.63;;;22.40;86.20;;;25.26;54.95;100099.22;4993521;28;20617;-58
2023/07/24 08:46:37;;;;;;;8.30;5.80;;;22.40;86.40;;;25.23;55.33;100102.50;5008370;28;20251;-62
2023/07/24 08:49:04;;;;;;;5.10;4.70;;;22.50;86.70;;;25.25;55.23;100094.91;4981295;28;20743;-60
2023/07/24 08:51:32;;;;;;;5.53;5.07;;;22.50;86.90;;;25.39;54.60;100093.13;4973679;28;20231;-60
2023/07/24 08:54:02;;;;;;;6.10;5.50;;;22.50;87.40;;;25.58;54.55;100087.03;5008069;28;20203;-60
2023/07/24 08:56:29;;;;;;;6.70;6.10;;;22.50;87.60;;;25.74;55.03;100083.03;5011998;28;20195;-61
2023/07/24 08:58:57;;;;;;;7.60;7.00;;;22.60;87.80;;;25.85;54.51;100076.41;4978476;28;20227;-60
2023/07/24 09:01:25;;;;;;;5.87;5.40;;;22.70;87.80;;;25.88;54.29;100084.72;4990101;28;20204;-60
2023/07/24 09:03:52;;;;;;;6.47;5.97;;;22.80;87.60;;;25.95;54.75;100078.94;4992985;28;20231;-61
2023/07/24 09:06:19;;;;;;;6.10;5.70;;;22.90;87.50;;;26.03;54.61;100081.00;4993404;28;20188;-61
2023/07/24 09:08:46;;;;;;;6.17;5.67;;;22.90;87.30;;;26.11;53.79;100085.75;4993260;28;20192;-61
2023/07/24 09:11:15;;;;;;;5.53;5.13;;;22.90;87.00;;;26.19;53.87;100088.63;4993437;28;20192;-62
2023/07/24 09:13:43;;;;;;;6.27;5.73;;;23.00;87.00;;;26.17;52.99;100071.09;4993759;28;20196;-63
2023/07/24 09:16:22;;;;;;;5.87;5.43;;;23.10;85.70;;;25.91;53.16;100081.41;4993393;28;20688;-62
2023/07/24 09:18:51;;;;;;;6.07;5.30;;;23.10;84.80;;;25.87;53.92;100085.81;4992978;28;20235;-62
2023/07/24 09:21:36;;;;;;;5.00;4.60;;;23.10;85.00;;;25.86;53.97;100078.00;4993328;28;20258;-63
2023/07/24 09:24:11;;;;;;;6.50;5.90;;;23.00;85.10;;;25.79;53.56;100072.19;4997494;28;20191;-62
2023/07/24 09:26:49;;;;;;;5.93;5.43;;;23.00;84.90;;;25.66;54.05;100081.78;4973351;28;20272;-60
2023/07/24 09:29:17;;;;;;;5.50;5.03;;;23.00;84.70;;;25.69;53.59;100083.09;4973468;28;20255;-58
2023/07/24 09:31:45;;;;;;;6.00;5.50;;;23.00;84.60;;;25.68;54.15;100082.28;4987233;28;20266;-62
2023/07/24 09:34:17;;;;;;;5.73;5.13;;;23.00;85.10;;;25.58;54.00;100074.31;4993479;28;20280;-63
2023/07/24 09:36:44;;;;;;;5.43;4.53;;;22.90;85.30;;;25.50;54.56;100075.78;4993435;28;20590;-62
2023/07/24 09:39:11;;;;;;;4.40;4.00;;;22.90;85.70;;;25.55;54.29;100067.63;4992970;28;20258;-59
2023/07/24 09:41:39;;;;;;;4.20;3.90;;;22.90;85.90;;;25.83;54.10;100078.59;5007972;28;20283;-61
2023/07/24 09:44:12;;;;;;;3.97;3.67;;;22.90;86.40;;;26.05;53.11;100070.72;4981129;28;20727;-59
2023/07/24 09:46:40;;;;;;;3.53;3.30;;;23.00;85.50;;;26.74;52.58;100065.25;4976970;28;20247;-61
2023/07/24 09:49:11;;;;;;;4.17;3.77;;;23.20;85.80;;;28.04;49.13;100058.31;4976920;28;20213;-61
2023/07/24 09:51:43;;;;;;;4.10;3.80;;;23.60;84.40;;;28.94;45.70;100059.84;4976971;28;20685;-61
2023/07/24 09:54:26;;;;;;;3.63;3.33;;;24.00;81.80;;;29.98;44.75;100056.28;5013131;28;20206;-60
2023/07/24 09:56:55;;;;;;;3.90;3.60;;;24.60;82.10;;;31.06;41.44;100045.06;4975804;28;20257;-62
2023/07/24 09:59:40;;;;;;;3.50;3.30;;;25.20;77.70;;;32.30;40.07;100043.25;4977985;28;20216;-61
2023/07/24 10:02:12;;;;;;;3.17;2.97;;;26.00;76.40;;;33.34;36.06;100033.50;4995993;28;20206;-61
2023/07/24 10:04:40;;;;;;;3.43;3.23;;;26.60;71.40;;;34.42;36.17;100039.00;4996317;28;20230;-60
2023/07/24 10:07:08;;;;;;;4.43;3.78;;;27.40;72.40;;;34.98;32.98;100040.44;4995942;28;20192;-59
2023/07/24 10:09:39;;;;;;;3.35;3.10;;;28.00;66.40;;;34.78;33.41;100041.50;4994283;28;20232;-60
2023/07/24 10:12:08;;;;;;;3.45;3.15;;;28.50;65.10;;;35.10;33.27;100037.63;4994611;28;20250;-60
2023/07/24 10:14:38;;;;;;;3.60;3.30;;;28.90;64.30;;;34.50;32.98;100044.28;4995654;28;20283;-60
2023/07/24 10:17:05;;;;;;;3.33;3.13;;;29.00;61.10;;;33.62;34.49;100038.25;4996006;28;20290;-60